sensor_id;sensor_type;location;lat;lon;timestamp;pressure;altitude;pressure_sealevel;temperature;humidity
63493;BME280;49638;47.526;10.028;2023-05-11T00:00:40;91509.28;;;7.93;100.00
63493;BME280;49638;47.526;10.028;2023-05-11T00:03:40;91492.38;;;7.89;100.00
63493;BME280;49638;47.526;10.028;2023-05-11T00:06:41;91492.94;;;7.91;100.00
63493;BME280;49638;47.526;10.028;2023-05-11T00:09:41;91484.69;;;7.88;100.00
63493;BME280;49638;47.526;10.028;2023-05-11T00:12:42;91500.81;;;7.91;100.00
63493;BME280;49638;47.526;10.028;2023-05-11T00:15:42;91493.97;;;7.90;100.00
63493;BME280;49638;47.526;10.028;2023-05-11T00:18:42;91495.09;;;7.94;100.00
63493;BME280;49638;47.526;10.028;2023-05-11T00:21:42;91483.56;;;7.83;100.00
63493;BME280;49638;47.526;10.028;2023-05-11T00:24:43;91494.44;;;7.87;100.00
63493;BME280;49638;47.526;10.028;2023-05-11T00:27:43;91472.72;;;7.80;100.00
63493;BME280;49638;47.526;10.028;2023-05-11T00:30:45;91478.66;;;7.87;100.00
63493;BME280;49638;47.526;10.028;2023-05-11T00:33:45;91482.66;;;7.90;100.00
63493;BME280;49638;47.526;10.028;2023-05-11T00:36:45;91485.03;;;7.91;100.00
63493;BME280;49638;47.526;10.028;2023-05-11T00:39:46;91483.91;;;7.87;100.00
63493;BME280;49638;47.526;10.028;2023-05-11T00:42:46;91476.00;;;7.87;100.00
63493;BME280;49638;47.526;10.028;2023-05-11T00:45:47;91481.53;;;7.86;100.00
63493;BME280;49638;47.526;10.028;2023-05-11T00:48:48;91468.81;;;7.82;100.00
63493;BME280;49638;47.526;10.028;2023-05-11T00:51:49;91475.94;;;7.82;100.00
63493;BME280;49638;47.526;10.028;2023-05-11T00:54:49;91486.53;;;7.87;100.00
63493;BME280;49638;47.526;10.028;2023-05-11T00:57:49;91481.72;;;7.84;100.00
63493;BME280;49638;47.526;10.028;2023-05-11T01:00:50;91480.38;;;7.81;100.00
63493;BME280;49638;47.526;10.028;2023-05-11T01:03:50;91472.72;;;7.80;100.00
63493;BME280;49638;47.526;10.028;2023-05-11T01:10:03;91465.41;;;7.82;100.00
63493;BME280;49638;47.526;10.028;2023-05-11T01:13:26;91478.44;;;7.77;100.00
63493;BME280;49638;47.526;10.028;2023-05-11T01:16:31;91482.56;;;7.85;100.00
63493;BME280;49638;47.526;10.028;2023-05-11T01:19:41;91478.91;;;7.74;100.00
63493;BME280;49638;47.526;10.028;2023-05-11T01:26:44;91487.03;;;7.72;100.00
63493;BME280;49638;47.526;10.028;2023-05-11T01:33:34;91474.13;;;7.59;100.00
63493;BME280;49638;47.526;10.028;2023-05-11T01:36:41;91479.72;;;7.63;100.00
63493;BME280;49638;47.526;10.028;2023-05-11T01:39:50;91457.88;;;7.50;100.00
63493;BME280;49638;47.526;10.028;2023-05-11T01:42:59;91478.47;;;7.53;100.00
63493;BME280;49638;47.526;10.028;2023-05-11T01:46:00;91485.78;;;7.63;100.00
63493;BME280;49638;47.526;10.028;2023-05-11T01:49:05;91488.88;;;7.60;100.00
63493;BME280;49638;47.526;10.028;2023-05-11T01:52:07;91487.28;;;7.59;100.00
63493;BME280;49638;47.526;10.028;2023-05-11T01:55:09;91478.47;;;7.53;100.00
63493;BME280;49638;47.526;10.028;2023-05-11T01:58:12;91484.19;;;7.62;100.00
63493;BME280;49638;47.526;10.028;2023-05-11T02:01:14;91487.28;;;7.59;100.00
63493;BME280;49638;47.526;10.028;2023-05-11T02:04:17;91472.75;;;7.56;100.00
63493;BME280;49638;47.526;10.028;2023-05-11T02:07:20;91469.44;;;7.49;100.00
63493;BME280;49638;47.526;10.028;2023-05-11T02:10:24;91467.94;;;7.53;100.00
63493;BME280;49638;47.526;10.028;2023-05-11T02:13:26;91463.63;;;7.47;100.00
63493;BME280;49638;47.526;10.028;2023-05-11T02:16:27;91470.44;;;7.60;100.00
63493;BME280;49638;47.526;10.028;2023-05-11T02:19:33;91457.09;;;7.50;100.00
63493;BME280;49638;47.526;10.028;2023-05-11T02:22:34;91457.22;;;7.55;100.00
63493;BME280;49638;47.526;10.028;2023-05-11T02:25:37;91467.28;;;7.58;100.00
63493;BME280;49638;47.526;10.028;2023-05-11T02:28:38;91449.44;;;7.48;100.00
63493;BME280;49638;47.526;10.028;2023-05-11T02:31:42;91458.59;;;7.57;100.00
63493;BME280;49638;47.526;10.028;2023-05-11T02:34:49;91464.41;;;7.59;100.00
63493;BME280;49638;47.526;10.028;2023-05-11T02:37:55;91462.56;;;7.60;100.00
63493;BME280;49638;47.526;10.028;2023-05-11T02:41:00;91463.34;;;7.61;100.00
63493;BME280;49638;47.526;10.028;2023-05-11T02:44:02;91462.34;;;7.62;100.00
63493;BME280;49638;47.526;10.028;2023-05-11T02:47:05;91452.84;;;7.61;100.00
63493;BME280;49638;47.526;10.028;2023-05-11T02:50:11;91445.31;;;7.52;100.00
63493;BME280;49638;47.526;10.028;2023-05-11T02:53:14;91442.09;;;7.50;100.00
63493;BME280;49638;47.526;10.028;2023-05-11T02:56:16;91452.16;;;7.53;100.00
63493;BME280;49638;47.526;10.028;2023-05-11T02:59:17;91415.59;;;7.40;100.00
63493;BME280;49638;47.526;10.028;2023-05-11T03:02:17;91447.69;;;7.54;100.00
63493;BME280;49638;47.526;10.028;2023-05-11T03:05:17;91437.88;;;7.49;100.00
63493;BME280;49638;47.526;10.028;2023-05-11T03:08:18;91439.34;;;7.57;100.00
63493;BME280;49638;47.526;10.028;2023-05-11T03:11:19;91439.97;;;7.47;100.00
63493;BME280;49638;47.526;10.028;2023-05-11T03:14:20;91431.25;;;7.47;100.00
63493;BME280;49638;47.526;10.028;2023-05-11T03:17:21;91446.91;;;7.53;100.00
63493;BME280;49638;47.526;10.028;2023-05-11T03:20:21;91442.44;;;7.54;100.00
63493;BME280;49638;47.526;10.028;2023-05-11T03:23:22;91442.94;;;7.51;100.00
63493;BME280;49638;47.526;10.028;2023-05-11T03:26:26;91444.06;;;7.55;100.00
63493;BME280;49638;47.526;10.028;2023-05-11T03:29:27;91436.97;;;7.44;100.00
63493;BME280;49638;47.526;10.028;2023-05-11T03:32:29;91439.13;;;7.47;100.00
63493;BME280;49638;47.526;10.028;2023-05-11T03:35:32;91448.19;;;7.51;100.00
63493;BME280;49638;47.526;10.028;2023-05-11T03:38:34;91435.63;;;7.41;100.00
63493;BME280;49638;47.526;10.028;2023-05-11T03:41:38;91439.84;;;7.42;100.00
63493;BME280;49638;47.526;10.028;2023-05-11T03:44:39;91433.53;;;7.43;100.00
63493;BME280;49638;47.526;10.028;2023-05-11T03:47:41;91432.53;;;7.44;100.00
63493;BME280;49638;47.526;10.028;2023-05-11T03:50:42;91424.41;;;7.46;100.00
63493;BME280;49638;47.526;10.028;2023-05-11T03:53:43;91420.41;;;7.43;100.00
63493;BME280;49638;47.526;10.028;2023-05-11T03:56:44;91409.22;;;7.36;100.00
63493;BME280;49638;47.526;10.028;2023-05-11T03:59:44;91424.06;;;7.42;100.00
63493;BME280;49638;47.526;10.028;2023-05-11T04:02:45;91427.75;;;7.41;100.00
63493;BME280;49638;47.526;10.028;2023-05-11T04:05:45;91422.47;;;7.41;100.00
63493;BME280;49638;47.526;10.028;2023-05-11T04:08:46;91414.47;;;7.36;100.00
63493;BME280;49638;47.526;10.028;2023-05-11T04:11:46;91413.78;;;7.41;100.00
63493;BME280;49638;47.526;10.028;2023-05-11T04:14:46;91423.38;;;7.47;100.00
63493;BME280;49638;47.526;10.028;2023-05-11T04:17:46;91432.06;;;7.47;100.00
63493;BME280;49638;47.526;10.028;2023-05-11T04:20:47;91420.53;;;7.48;100.00
63493;BME280;49638;47.526;10.028;2023-05-11T04:23:47;91420.53;;;7.48;100.00
63493;BME280;49638;47.526;10.028;2023-05-11T04:26:47;91403.97;;;7.36;100.00
63493;BME280;49638;47.526;10.028;2023-05-11T04:29:48;91423.94;;;7.49;100.00
63493;BME280;49638;47.526;10.028;2023-05-11T04:32:48;91412.84;;;7.47;100.00
63493;BME280;49638;47.526;10.028;2023-05-11T04:35:52;91418.47;;;7.39;100.00
63493;BME280;49638;47.526;10.028;2023-05-11T04:38:53;91422.09;;;7.49;100.00
63493;BME280;49638;47.526;10.028;2023-05-11T04:41:53;91410.22;;;7.47;100.00
63493;BME280;49638;47.526;10.028;2023-05-11T04:44:53;91424.28;;;7.52;100.00
63493;BME280;49638;47.526;10.028;2023-05-11T04:47:54;91421.41;;;7.54;100.00
63493;BME280;49638;47.526;10.028;2023-05-11T04:50:54;91416.97;;;7.54;100.00
63493;BME280;49638;47.526;10.028;2023-05-11T04:53:55;91416.97;;;7.54;100.00
63493;BME280;49638;47.526;10.028;2023-05-11T04:56:55;91422.09;;;7.61;100.00
63493;BME280;49638;47.526;10.028;2023-05-11T04:59:56;91423.91;;;7.61;100.00
63493;BME280;49638;47.526;10.028;2023-05-11T05:02:56;91412.25;;;7.56;100.00
63493;BME280;49638;47.526;10.028;2023-05-11T05:05:56;91418.44;;;7.62;100.00
63493;BME280;49638;47.526;10.028;2023-05-11T05:08:57;91431.34;;;7.64;100.00
63493;BME280;49638;47.526;10.028;2023-05-11T05:11:57;91422.44;;;7.65;100.00
63493;BME280;49638;47.526;10.028;2023-05-11T05:14:57;91427.25;;;7.68;100.00
63493;BME280;49638;47.526;10.028;2023-05-11T05:17:57;91424.69;;;7.73;100.00
63493;BME280;49638;47.526;10.028;2023-05-11T05:20:58;91422.84;;;7.73;100.00
63493;BME280;49638;47.526;10.028;2023-05-11T05:23:58;91415.91;;;7.67;100.00
63493;BME280;49638;47.526;10.028;2023-05-11T05:26:58;91423.91;;;7.72;100.00
63493;BME280;49638;47.526;10.028;2023-05-11T05:29:58;91426.88;;;7.76;100.00
63493;BME280;49638;47.526;10.028;2023-05-11T05:32:59;91420.47;;;7.72;100.00
63493;BME280;49638;47.526;10.028;2023-05-11T05:35:59;91437.97;;;7.78;100.00
63493;BME280;49638;47.526;10.028;2023-05-11T05:38:59;91427.25;;;7.68;100.00
63493;BME280;49638;47.526;10.028;2023-05-11T05:42:00;91430.88;;;7.67;100.00
63493;BME280;49638;47.526;10.028;2023-05-11T05:45:02;91421.63;;;7.64;100.00
63493;BME280;49638;47.526;10.028;2023-05-11T05:48:03;91427.25;;;7.68;100.00
63493;BME280;49638;47.526;10.028;2023-05-11T05:51:05;91432.34;;;7.74;100.00
63493;BME280;49638;47.526;10.028;2023-05-11T05:54:05;91417.50;;;7.68;100.00
63493;BME280;49638;47.526;10.028;2023-05-11T05:57:05;91413.03;;;7.69;100.00
63493;BME280;49638;47.526;10.028;2023-05-11T06:00:06;91433.84;;;7.82;100.00
63493;BME280;49638;47.526;10.028;2023-05-11T06:03:08;91425.34;;;7.80;100.00
63493;BME280;49638;47.526;10.028;2023-05-11T06:06:08;91426.41;;;7.79;100.00
63493;BME280;49638;47.526;10.028;2023-05-11T06:09:09;91429.38;;;7.82;100.00
63493;BME280;49638;47.526;10.028;2023-05-11T06:12:09;91428.66;;;7.87;100.00
63493;BME280;49638;47.526;10.028;2023-05-11T06:15:10;91416.78;;;7.85;100.00
63493;BME280;49638;47.526;10.028;2023-05-11T06:18:10;91430.34;;;7.93;100.00
63493;BME280;49638;47.526;10.028;2023-05-11T06:21:10;91417.34;;;7.87;100.00
63493;BME280;49638;47.526;10.028;2023-05-11T06:24:11;91426.22;;;7.97;100.00
63493;BME280;49638;47.526;10.028;2023-05-11T06:27:11;91419.38;;;7.96;100.00
63493;BME280;49638;47.526;10.028;2023-05-11T06:30:11;91414.00;;;7.91;100.00
63493;BME280;49638;47.526;10.028;2023-05-11T06:33:12;91428.38;;;8.00;100.00
63493;BME280;49638;47.526;10.028;2023-05-11T06:36:12;91424.16;;;7.99;100.00
63493;BME280;49638;47.526;10.028;2023-05-11T06:39:12;91428.38;;;8.00;100.00
63493;BME280;49638;47.526;10.028;2023-05-11T06:42:13;91415.22;;;8.00;100.00
63493;BME280;49638;47.526;10.028;2023-05-11T06:45:13;91419.94;;;7.98;100.00
63493;BME280;49638;47.526;10.028;2023-05-11T06:48:13;91423.59;;;7.97;100.00
63493;BME280;49638;47.526;10.028;2023-05-11T06:51:14;91418.44;;;8.02;100.00
63493;BME280;49638;47.526;10.028;2023-05-11T06:54:14;91418.91;;;7.99;100.00
63493;BME280;49638;47.526;10.028;2023-05-11T06:57:14;91426.53;;;8.01;100.00
63493;BME280;49638;47.526;10.028;2023-05-11T07:00:15;91420.03;;;8.03;100.00
63493;BME280;49638;47.526;10.028;2023-05-11T07:03:15;91421.41;;;8.06;100.00
63493;BME280;49638;47.526;10.028;2023-05-11T07:06:15;91413.72;;;8.04;100.00
63493;BME280;49638;47.526;10.028;2023-05-11T07:09:16;91418.38;;;8.14;100.00
63493;BME280;49638;47.526;10.028;2023-05-11T07:12:16;91417.00;;;8.12;100.00
63493;BME280;49638;47.526;10.028;2023-05-11T07:15:16;91423.28;;;8.22;100.00
63493;BME280;49638;47.526;10.028;2023-05-11T07:18:17;91428.28;;;8.24;100.00
63493;BME280;49638;47.526;10.028;2023-05-11T07:21:17;91428.88;;;8.26;100.00
63493;BME280;49638;47.526;10.028;2023-05-11T07:24:17;91420.72;;;8.27;100.00
63493;BME280;49638;47.526;10.028;2023-05-11T07:27:18;91427.91;;;8.32;100.00
63493;BME280;49638;47.526;10.028;2023-05-11T07:30:18;91423.69;;;8.31;100.00
63493;BME280;49638;47.526;10.028;2023-05-11T07:33:18;91430.44;;;8.39;100.00
63493;BME280;49638;47.526;10.028;2023-05-11T07:36:18;91421.94;;;8.37;100.00
63493;BME280;49638;47.526;10.028;2023-05-11T07:39:19;91434.28;;;8.48;100.00
63493;BME280;49638;47.526;10.028;2023-05-11T07:42:19;91414.41;;;8.40;100.00
63493;BME280;49638;47.526;10.028;2023-05-11T07:45:19;91424.06;;;8.51;100.00
63493;BME280;49638;47.526;10.028;2023-05-11T07:48:20;91428.56;;;8.68;100.00
63493;BME280;49638;47.526;10.028;2023-05-11T07:51:20;91438.47;;;8.77;100.00
63493;BME280;49638;47.526;10.028;2023-05-11T07:54:20;91433.06;;;8.84;100.00
63493;BME280;49638;47.526;10.028;2023-05-11T07:57:21;91418.81;;;8.85;100.00
63493;BME280;49638;47.526;10.028;2023-05-11T08:00:21;91420.25;;;8.93;100.00
63493;BME280;49638;47.526;10.028;2023-05-11T08:03:21;91416.19;;;9.02;100.00
63493;BME280;49638;47.526;10.028;2023-05-11T08:06:22;91430.25;;;9.08;100.00
63493;BME280;49638;47.526;10.028;2023-05-11T08:09:22;91422.19;;;9.14;100.00
63493;BME280;49638;47.526;10.028;2023-05-11T08:12:22;91420.41;;;9.20;100.00
63493;BME280;49638;47.526;10.028;2023-05-11T08:15:22;91415.94;;;9.20;100.00
63493;BME280;49638;47.526;10.028;2023-05-11T08:18:23;91422.22;;;9.36;100.00
63493;BME280;49638;47.526;10.028;2023-05-11T08:21:23;91423.63;;;9.44;100.00
63493;BME280;49638;47.526;10.028;2023-05-11T08:24:23;91421.69;;;9.56;100.00
63493;BME280;49638;47.526;10.028;2023-05-11T08:27:24;91415.69;;;9.61;100.00
63493;BME280;49638;47.526;10.028;2023-05-11T08:30:24;91416.25;;;9.63;100.00
63493;BME280;49638;47.526;10.028;2023-05-11T08:33:24;91413.03;;;9.61;100.00
63493;BME280;49638;47.526;10.028;2023-05-11T08:36:26;91420.25;;;9.65;100.00
63493;BME280;49638;47.526;10.028;2023-05-11T08:39:27;91418.41;;;9.66;100.00
63493;BME280;49638;47.526;10.028;2023-05-11T08:42:32;91419.44;;;9.65;99.48
63493;BME280;49638;47.526;10.028;2023-05-11T08:45:33;91410.72;;;9.64;99.73
63493;BME280;49638;47.526;10.028;2023-05-11T08:48:36;91417.16;;;9.74;99.61
63493;BME280;49638;47.526;10.028;2023-05-11T08:51:36;91417.00;;;9.80;99.26
63493;BME280;49638;47.526;10.028;2023-05-11T08:54:37;91398.97;;;9.72;98.25
63493;BME280;49638;47.526;10.028;2023-05-11T08:57:37;91409.88;;;9.81;98.66
63493;BME280;49638;47.526;10.028;2023-05-11T09:00:38;91413.13;;;9.88;98.40
63493;BME280;49638;47.526;10.028;2023-05-11T09:03:39;91419.75;;;9.90;98.34
63493;BME280;49638;47.526;10.028;2023-05-11T09:06:40;91404.19;;;9.89;97.90
63493;BME280;49638;47.526;10.028;2023-05-11T09:09:41;91417.22;;;10.01;97.37
63493;BME280;49638;47.526;10.028;2023-05-11T09:12:42;91420.19;;;10.04;97.78
63493;BME280;49638;47.526;10.028;2023-05-11T09:15:42;91401.66;;;9.99;97.66
63493;BME280;49638;47.526;10.028;2023-05-11T09:18:46;91415.34;;;9.96;97.30
63493;BME280;49638;47.526;10.028;2023-05-11T09:21:47;91417.13;;;9.90;97.71
63493;BME280;49638;47.526;10.028;2023-05-11T09:24:47;91400.59;;;9.78;98.74
63493;BME280;49638;47.526;10.028;2023-05-11T09:27:48;91407.53;;;9.84;98.23
63493;BME280;49638;47.526;10.028;2023-05-11T09:30:49;91411.53;;;9.87;97.94
63493;BME280;49638;47.526;10.028;2023-05-11T09:34:07;91409.16;;;9.85;98.03
63493;BME280;49638;47.526;10.028;2023-05-11T09:37:15;91410.16;;;9.84;97.70
63493;BME280;49638;47.526;10.028;2023-05-11T09:40:17;91407.00;;;9.82;98.32
63493;BME280;49638;47.526;10.028;2023-05-11T09:43:26;91406.75;;;9.84;98.35
63493;BME280;49638;47.526;10.028;2023-05-11T09:46:26;91403.03;;;9.85;98.48
63493;BME280;49638;47.526;10.028;2023-05-11T09:49:27;91381.81;;;9.75;97.68
63493;BME280;49638;47.526;10.028;2023-05-11T09:52:28;91399.88;;;9.83;97.73
63493;BME280;49638;47.526;10.028;2023-05-11T09:55:28;91406.50;;;9.85;97.82
63493;BME280;49638;47.526;10.028;2023-05-11T09:58:55;91410.00;;;9.91;96.09
63493;BME280;49638;47.526;10.028;2023-05-11T10:01:59;91400.28;;;9.97;96.90
63493;BME280;49638;47.526;10.028;2023-05-11T10:05:13;91392.19;;;10.03;97.66
63493;BME280;49638;47.526;10.028;2023-05-11T10:08:14;91399.72;;;10.16;97.84
63493;BME280;49638;47.526;10.028;2023-05-11T10:11:14;91402.00;;;10.30;98.01
63493;BME280;49638;47.526;10.028;2023-05-11T10:14:15;91396.34;;;10.43;97.54
63493;BME280;49638;47.526;10.028;2023-05-11T10:17:16;91390.28;;;10.48;97.90
63493;BME280;49638;47.526;10.028;2023-05-11T10:20:16;91381.28;;;10.44;97.94
63493;BME280;49638;47.526;10.028;2023-05-11T10:23:17;91389.81;;;10.56;97.77
63493;BME280;49638;47.526;10.028;2023-05-11T10:26:19;91389.63;;;10.62;97.90
63493;BME280;49638;47.526;10.028;2023-05-11T10:29:20;91379.41;;;10.71;97.06
63493;BME280;49638;47.526;10.028;2023-05-11T10:32:20;91388.19;;;10.77;96.22
63493;BME280;49638;47.526;10.028;2023-05-11T10:35:21;91380.00;;;10.78;95.56
63493;BME280;49638;47.526;10.028;2023-05-11T10:38:23;91383.97;;;10.81;95.57
63493;BME280;49638;47.526;10.028;2023-05-11T10:48:46;91373.44;;;10.86;91.97
63493;BME280;49638;47.526;10.028;2023-05-11T10:52:23;91371.13;;;10.95;92.12
63493;BME280;49638;47.526;10.028;2023-05-11T11:02:30;91365.44;;;11.13;92.99
63493;BME280;49638;47.526;10.028;2023-05-11T11:05:34;91347.72;;;11.13;92.82
63493;BME280;49638;47.526;10.028;2023-05-11T11:08:54;91366.09;;;11.35;88.71
63493;BME280;49638;47.526;10.028;2023-05-11T11:12:07;91364.25;;;11.36;90.06
63493;BME280;49638;47.526;10.028;2023-05-11T11:15:09;91356.75;;;11.23;92.04
63493;BME280;49638;47.526;10.028;2023-05-11T11:18:24;91363.91;;;11.22;91.02
63493;BME280;49638;47.526;10.028;2023-05-11T11:21:42;91369.13;;;11.12;89.80
63493;BME280;49638;47.526;10.028;2023-05-11T11:24:45;91366.19;;;11.08;93.36
63493;BME280;49638;47.526;10.028;2023-05-11T11:37:27;91367.69;;;11.31;94.13
63493;BME280;49638;47.526;10.028;2023-05-11T11:43:43;91348.88;;;11.33;91.09
63493;BME280;49638;47.526;10.028;2023-05-11T11:50:12;91345.50;;;11.43;92.43
63493;BME280;49638;47.526;10.028;2023-05-11T11:56:40;91350.84;;;11.58;93.60
63493;BME280;49638;47.526;10.028;2023-05-11T11:59:44;91342.44;;;11.66;93.05
63493;BME280;49638;47.526;10.028;2023-05-11T12:02:46;91347.00;;;11.76;93.29
63493;BME280;49638;47.526;10.028;2023-05-11T12:05:49;91340.38;;;11.83;92.60
63493;BME280;49638;47.526;10.028;2023-05-11T12:08:52;91335.72;;;11.96;92.77
63493;BME280;49638;47.526;10.028;2023-05-11T12:11:53;91341.28;;;11.99;92.84
63493;BME280;49638;47.526;10.028;2023-05-11T12:14:53;91342.63;;;12.12;91.89
63493;BME280;49638;47.526;10.028;2023-05-11T12:17:54;91340.00;;;12.22;91.72
63493;BME280;49638;47.526;10.028;2023-05-11T12:20:54;91334.19;;;12.30;91.33
63493;BME280;49638;47.526;10.028;2023-05-11T12:23:57;91335.22;;;12.29;90.59
63493;BME280;49638;47.526;10.028;2023-05-11T12:27:01;91335.50;;;12.23;89.00
63493;BME280;49638;47.526;10.028;2023-05-11T12:30:01;91331.53;;;12.20;81.66
63493;BME280;49638;47.526;10.028;2023-05-11T12:33:02;91323.56;;;12.25;90.30
63493;BME280;49638;47.526;10.028;2023-05-11T12:36:03;91326.78;;;12.43;90.41
63493;BME280;49638;47.526;10.028;2023-05-11T12:39:03;91327.31;;;12.55;88.95
63493;BME280;49638;47.526;10.028;2023-05-11T12:42:04;91320.97;;;12.61;88.41
63493;BME280;49638;47.526;10.028;2023-05-11T12:45:05;91316.72;;;12.55;88.16
63493;BME280;49638;47.526;10.028;2023-05-11T12:48:05;91313.53;;;12.53;88.06
63493;BME280;49638;47.526;10.028;2023-05-11T12:51:06;91319.41;;;12.60;87.76
63493;BME280;49638;47.526;10.028;2023-05-11T12:54:06;91326.25;;;12.66;86.60
63493;BME280;49638;47.526;10.028;2023-05-11T12:57:08;91323.63;;;12.76;86.80
63493;BME280;49638;47.526;10.028;2023-05-11T13:00:20;91314.34;;;12.79;78.11
63493;BME280;49638;47.526;10.028;2023-05-11T13:03:29;91302.66;;;12.80;86.64
63493;BME280;49638;47.526;10.028;2023-05-11T13:06:32;91302.38;;;12.97;85.56
63493;BME280;49638;47.526;10.028;2023-05-11T13:09:33;91297.34;;;13.00;86.20
63493;BME280;49638;47.526;10.028;2023-05-11T13:12:33;91291.75;;;13.07;85.68
63493;BME280;49638;47.526;10.028;2023-05-11T13:15:48;91305.03;;;13.12;79.08
63493;BME280;49638;47.526;10.028;2023-05-11T13:19:00;91293.91;;;13.05;79.01
63493;BME280;49638;47.526;10.028;2023-05-11T13:22:02;91296.28;;;13.01;84.23
63493;BME280;49638;47.526;10.028;2023-05-11T13:25:03;91297.34;;;12.90;83.47
63493;BME280;49638;47.526;10.028;2023-05-11T13:28:03;91281.22;;;12.71;84.05
63493;BME280;49638;47.526;10.028;2023-05-11T13:31:03;91293.41;;;12.77;83.21
63493;BME280;49638;47.526;10.028;2023-05-11T13:34:03;91292.88;;;12.75;83.67
63493;BME280;49638;47.526;10.028;2023-05-11T13:37:04;91281.72;;;12.68;83.78
63493;BME280;49638;47.526;10.028;2023-05-11T13:40:05;91286.75;;;12.70;82.67
63493;BME280;49638;47.526;10.028;2023-05-11T13:43:09;91282.53;;;12.53;82.53
63493;BME280;49638;47.526;10.028;2023-05-11T13:46:09;91286.50;;;12.51;81.51
63493;BME280;49638;47.526;10.028;2023-05-11T13:49:09;91280.94;;;12.37;80.09
63493;BME280;49638;47.526;10.028;2023-05-11T13:52:10;91269.00;;;12.24;80.45
63493;BME280;49638;47.526;10.028;2023-05-11T13:55:10;91271.09;;;12.22;80.57
63493;BME280;49638;47.526;10.028;2023-05-11T13:58:10;91275.09;;;12.30;80.86
63493;BME280;49638;47.526;10.028;2023-05-11T14:01:11;91278.81;;;12.34;80.41
63493;BME280;49638;47.526;10.028;2023-05-11T14:04:11;91278.28;;;12.32;80.03
63493;BME280;49638;47.526;10.028;2023-05-11T14:07:11;91269.78;;;12.25;79.31
63493;BME280;49638;47.526;10.028;2023-05-11T14:10:13;91280.41;;;12.20;79.23
63493;BME280;49638;47.526;10.028;2023-05-11T14:13:14;91276.13;;;12.08;79.47
63493;BME280;49638;47.526;10.028;2023-05-11T14:16:14;91271.56;;;11.89;79.82
63493;BME280;49638;47.526;10.028;2023-05-11T14:19:15;91261.72;;;11.74;80.80
63493;BME280;49638;47.526;10.028;2023-05-11T14:22:15;91278.09;;;11.60;82.51
63493;BME280;49638;47.526;10.028;2023-05-11T14:25:15;91277.47;;;11.33;83.93
63493;BME280;49638;47.526;10.028;2023-05-11T14:28:15;91277.03;;;11.04;84.78
63493;BME280;49638;47.526;10.028;2023-05-11T14:31:16;91282.19;;;10.78;85.20
63493;BME280;49638;47.526;10.028;2023-05-11T14:34:16;91278.56;;;10.52;86.15
63493;BME280;49638;47.526;10.028;2023-05-11T14:37:17;91280.00;;;10.33;86.93
63493;BME280;49638;47.526;10.028;2023-05-11T14:40:17;91290.47;;;10.23;87.85
63493;BME280;49638;47.526;10.028;2023-05-11T14:43:18;91286.63;;;10.08;88.04
63493;BME280;49638;47.526;10.028;2023-05-11T14:46:18;91289.72;;;10.00;88.59
63493;BME280;49638;47.526;10.028;2023-05-11T14:49:19;91281.16;;;9.88;88.44
63493;BME280;49638;47.526;10.028;2023-05-11T14:52:19;91283.47;;;9.84;89.16
63493;BME280;49638;47.526;10.028;2023-05-11T14:55:19;91286.69;;;9.86;89.49
63493;BME280;49638;47.526;10.028;2023-05-11T14:58:20;91288.66;;;9.74;90.07
63493;BME280;49638;47.526;10.028;2023-05-11T15:01:20;91280.44;;;9.70;90.14
63493;BME280;49638;47.526;10.028;2023-05-11T15:04:20;91278.06;;;9.69;90.35
63493;BME280;49638;47.526;10.028;2023-05-11T15:07:21;91273.28;;;9.66;91.16
63493;BME280;49638;47.526;10.028;2023-05-11T15:10:21;91287.06;;;9.73;90.93
63493;BME280;49638;47.526;10.028;2023-05-11T15:13:21;91284.94;;;9.70;91.08
63493;BME280;49638;47.526;10.028;2023-05-11T15:16:22;91288.91;;;9.73;91.42
63493;BME280;49638;47.526;10.028;2023-05-11T15:19:22;91284.44;;;9.73;91.60
63493;BME280;49638;47.526;10.028;2023-05-11T15:22:22;91274.06;;;9.66;91.47
63493;BME280;49638;47.526;10.028;2023-05-11T15:25:23;91291.28;;;9.74;91.58
63493;BME280;49638;47.526;10.028;2023-05-11T15:28:23;91293.22;;;9.79;91.39
63493;BME280;49638;47.526;10.028;2023-05-11T15:31:24;91290.00;;;9.77;91.69
63493;BME280;49638;47.526;10.028;2023-05-11T15:34:24;91290.31;;;9.80;91.72
63493;BME280;49638;47.526;10.028;2023-05-11T15:37:25;91288.22;;;9.82;91.80
63493;BME280;49638;47.526;10.028;2023-05-11T15:40:25;91291.41;;;9.84;92.29
63493;BME280;49638;47.526;10.028;2023-05-11T15:43:27;91282.66;;;9.79;91.99
63493;BME280;49638;47.526;10.028;2023-05-11T15:46:27;91295.66;;;9.85;91.84
63493;BME280;49638;47.526;10.028;2023-05-11T15:49:29;91294.31;;;9.83;92.20
63493;BME280;49638;47.526;10.028;2023-05-11T15:52:29;91282.84;;;9.72;92.55
63493;BME280;49638;47.526;10.028;2023-05-11T15:55:30;91290.31;;;9.80;91.93
63493;BME280;49638;47.526;10.028;2023-05-11T15:58:30;91287.66;;;9.80;91.30
63493;BME280;49638;47.526;10.028;2023-05-11T16:01:30;91291.84;;;9.76;91.59
63493;BME280;49638;47.526;10.028;2023-05-11T16:04:31;91286.47;;;9.66;91.92
63493;BME280;49638;47.526;10.028;2023-05-11T16:07:31;91279.25;;;9.56;92.06
63493;BME280;49638;47.526;10.028;2023-05-11T16:10:32;91286.91;;;9.58;92.14
63493;BME280;49638;47.526;10.028;2023-05-11T16:13:32;91280.47;;;9.48;92.05
63493;BME280;49638;47.526;10.028;2023-05-11T16:16:32;91293.50;;;9.55;91.83
63493;BME280;49638;47.526;10.028;2023-05-11T16:19:33;91288.94;;;9.51;92.13
63493;BME280;49638;47.526;10.028;2023-05-11T16:22:33;91268.78;;;9.39;92.86
63493;BME280;49638;47.526;10.028;2023-05-11T16:25:35;91283.72;;;9.34;93.80
63493;BME280;49638;47.526;10.028;2023-05-11T16:28:35;91278.41;;;9.29;93.58
63493;BME280;49638;47.526;10.028;2023-05-11T16:31:35;91291.41;;;9.35;93.85
63493;BME280;49638;47.526;10.028;2023-05-11T16:34:35;91278.63;;;9.27;94.63
63493;BME280;49638;47.526;10.028;2023-05-11T16:37:36;91283.13;;;9.27;95.27